GVAC/SID METAR and TAF weather

Enter ICAO airport designator
Station Type Date Time Source
GVAC METAR 2022/01/26 08:00 UTC NOAA

GVAC 260800Z 05018KT 9999 FEW014 21/18 Q1015 NOSIG


Station Type Date Time Source
GVAC Decoded METAR 2022/01/26 08:00 UTC NOAA

Sal, Cape Verde (GVAC) 16-44N 022-57W 55M
Jan 26, 2022 - 03:00 AM EST / 2022.01.26 0800 UTC
Wind: from the NE (050 degrees) at 21 MPH (18 KT):0
Visibility: greater than 7 mile(s):0
Sky conditions: mostly clear
Temperature: 69 F (21 C)
Dew Point: 64 F (18 C)
Relative Humidity: 82%
Pressure (altimeter): 29.97 in. Hg (1015 hPa)
ob: GVAC 260800Z 05018KT 9999 FEW014 21/18 Q1015 NOSIG
cycle: 8

Station Type Date Time Source
GVAC TAF 2022/01/26 06:58 UTC NOAA

TAF GVAC 260500Z 2606/2712 05020KT 9999 FEW014 PROB40
TEMPO 2611/2517 06020G30KT

Example: see airport list